Terminal Aerodrome Forecast
Issued by NWS North Platte, NE

Home | Current Version | Previous Version | Text Only | Print | Product List | Glossary On
Versions: 1 2 3 4 5 6 7 8 9 10 11 12 13 14 15 16 17 18 19 20 21 22 23 24 25 26 27 28 29 30
240
FTUS43 KLBF 141720
TAFVTN
TAF
KVTN 141720Z 1418/1518 28011KT P6SM BKN100 BKN200
     FM150000 28008KT P6SM OVC070
     FM150800 28009KT P6SM SCT090 BKN200
     FM151200 28009KT P6SM BKN200=

USA.gov is the U.S. government's official web portal to all federal, state and local government web resources and services.